sensor_id;sensor_type;location;lat;lon;timestamp;P1;durP1;ratioP1;P2;durP2;ratioP2
28862;SDS011;15994;51.796;13.006;2023-02-01T00:00:27;18.50;;;3.00;;
28862;SDS011;15994;51.796;13.006;2023-02-01T00:02:54;19.48;;;3.13;;
28862;SDS011;15994;51.796;13.006;2023-02-01T00:05:20;19.83;;;3.47;;
28862;SDS011;15994;51.796;13.006;2023-02-01T00:07:47;15.50;;;2.88;;
28862;SDS011;15994;51.796;13.006;2023-02-01T00:10:14;15.07;;;3.33;;
28862;SDS011;15994;51.796;13.006;2023-02-01T00:12:41;17.08;;;2.92;;
28862;SDS011;15994;51.796;13.006;2023-02-01T00:15:07;17.92;;;2.85;;
28862;SDS011;15994;51.796;13.006;2023-02-01T00:17:34;23.65;;;3.55;;
28862;SDS011;15994;51.796;13.006;2023-02-01T00:20:00;18.77;;;2.70;;
28862;SDS011;15994;51.796;13.006;2023-02-01T00:22:28;20.92;;;3.30;;
28862;SDS011;15994;51.796;13.006;2023-02-01T00:24:54;13.63;;;2.42;;
28862;SDS011;15994;51.796;13.006;2023-02-01T00:27:21;20.48;;;2.88;;
28862;SDS011;15994;51.796;13.006;2023-02-01T00:29:47;16.75;;;2.83;;
28862;SDS011;15994;51.796;13.006;2023-02-01T00:32:14;23.90;;;3.05;;
28862;SDS011;15994;51.796;13.006;2023-02-01T00:34:40;18.35;;;3.08;;
28862;SDS011;15994;51.796;13.006;2023-02-01T00:37:07;22.30;;;3.38;;
28862;SDS011;15994;51.796;13.006;2023-02-01T00:39:33;21.20;;;2.88;;
28862;SDS011;15994;51.796;13.006;2023-02-01T00:42:00;21.85;;;2.90;;
28862;SDS011;15994;51.796;13.006;2023-02-01T00:44:27;19.38;;;3.65;;
28862;SDS011;15994;51.796;13.006;2023-02-01T00:46:58;14.85;;;2.75;;
28862;SDS011;15994;51.796;13.006;2023-02-01T00:49:24;20.80;;;2.88;;
28862;SDS011;15994;51.796;13.006;2023-02-01T00:51:51;13.35;;;3.13;;
28862;SDS011;15994;51.796;13.006;2023-02-01T00:54:17;21.52;;;2.92;;
28862;SDS011;15994;51.796;13.006;2023-02-01T00:56:44;17.08;;;3.25;;
28862;SDS011;15994;51.796;13.006;2023-02-01T00:59:11;15.32;;;2.67;;
28862;SDS011;15994;51.796;13.006;2023-02-01T01:01:38;18.20;;;2.72;;
28862;SDS011;15994;51.796;13.006;2023-02-01T01:04:04;17.27;;;2.55;;
28862;SDS011;15994;51.796;13.006;2023-02-01T01:06:31;15.40;;;2.60;;
28862;SDS011;15994;51.796;13.006;2023-02-01T01:09:00;18.38;;;3.53;;
28862;SDS011;15994;51.796;13.006;2023-02-01T01:11:29;17.35;;;3.53;;
28862;SDS011;15994;51.796;13.006;2023-02-01T01:13:58;15.55;;;3.25;;
28862;SDS011;15994;51.796;13.006;2023-02-01T01:16:26;19.80;;;3.35;;
28862;SDS011;15994;51.796;13.006;2023-02-01T01:18:54;18.83;;;3.50;;
28862;SDS011;15994;51.796;13.006;2023-02-01T01:21:21;16.80;;;2.80;;
28862;SDS011;15994;51.796;13.006;2023-02-01T01:23:48;18.23;;;2.70;;
28862;SDS011;15994;51.796;13.006;2023-02-01T01:26:18;17.30;;;3.20;;
28862;SDS011;15994;51.796;13.006;2023-02-01T01:28:52;15.07;;;2.92;;
28862;SDS011;15994;51.796;13.006;2023-02-01T01:31:20;20.73;;;2.80;;
28862;SDS011;15994;51.796;13.006;2023-02-01T01:33:48;18.77;;;3.05;;
28862;SDS011;15994;51.796;13.006;2023-02-01T01:36:16;20.13;;;3.08;;
28862;SDS011;15994;51.796;13.006;2023-02-01T01:38:42;18.13;;;3.22;;
28862;SDS011;15994;51.796;13.006;2023-02-01T01:41:11;19.70;;;3.00;;
28862;SDS011;15994;51.796;13.006;2023-02-01T01:46:24;20.55;;;3.22;;
28862;SDS011;15994;51.796;13.006;2023-02-01T01:48:59;19.73;;;2.83;;
28862;SDS011;15994;51.796;13.006;2023-02-01T01:51:36;15.13;;;2.60;;
28862;SDS011;15994;51.796;13.006;2023-02-01T01:54:18;17.35;;;3.00;;
28862;SDS011;15994;51.796;13.006;2023-02-01T01:56:51;22.75;;;3.78;;
28862;SDS011;15994;51.796;13.006;2023-02-01T01:59:26;20.48;;;3.05;;
28862;SDS011;15994;51.796;13.006;2023-02-01T02:01:53;18.50;;;3.15;;
28862;SDS011;15994;51.796;13.006;2023-02-01T02:04:21;16.83;;;2.67;;
28862;SDS011;15994;51.796;13.006;2023-02-01T02:09:37;22.45;;;2.88;;
28862;SDS011;15994;51.796;13.006;2023-02-01T02:12:04;19.40;;;2.75;;
28862;SDS011;15994;51.796;13.006;2023-02-01T02:14:30;18.88;;;3.30;;
28862;SDS011;15994;51.796;13.006;2023-02-01T02:22:56;14.48;;;2.63;;
28862;SDS011;15994;51.796;13.006;2023-02-01T02:33:56;18.35;;;3.10;;
28862;SDS011;15994;51.796;13.006;2023-02-01T02:36:51;20.50;;;3.43;;
28862;SDS011;15994;51.796;13.006;2023-02-01T02:39:33;14.98;;;2.25;;
28862;SDS011;15994;51.796;13.006;2023-02-01T02:45:07;12.93;;;2.20;;
28862;SDS011;15994;51.796;13.006;2023-02-01T02:48:17;16.33;;;2.70;;
28862;SDS011;15994;51.796;13.006;2023-02-01T02:51:05;21.83;;;3.10;;
28862;SDS011;15994;51.796;13.006;2023-02-01T02:54:17;14.77;;;2.40;;
28862;SDS011;15994;51.796;13.006;2023-02-01T02:57:11;17.20;;;3.00;;
28862;SDS011;15994;51.796;13.006;2023-02-01T02:59:58;19.55;;;2.72;;
28862;SDS011;15994;51.796;13.006;2023-02-01T03:02:46;16.95;;;3.50;;
28862;SDS011;15994;51.796;13.006;2023-02-01T03:05:35;17.52;;;2.85;;
28862;SDS011;15994;51.796;13.006;2023-02-01T03:08:09;17.05;;;3.13;;
28862;SDS011;15994;51.796;13.006;2023-02-01T03:21:26;17.50;;;3.42;;
28862;SDS011;15994;51.796;13.006;2023-02-01T03:23:59;16.48;;;2.83;;
28862;SDS011;15994;51.796;13.006;2023-02-01T03:26:32;23.30;;;3.42;;
28862;SDS011;15994;51.796;13.006;2023-02-01T03:29:08;19.48;;;2.83;;
28862;SDS011;15994;51.796;13.006;2023-02-01T03:31:40;15.18;;;2.55;;
28862;SDS011;15994;51.796;13.006;2023-02-01T03:34:07;13.40;;;2.58;;
28862;SDS011;15994;51.796;13.006;2023-02-01T03:36:35;17.02;;;3.22;;
28862;SDS011;15994;51.796;13.006;2023-02-01T03:39:27;18.00;;;2.88;;
28862;SDS011;15994;51.796;13.006;2023-02-01T03:42:10;18.05;;;2.85;;
28862;SDS011;15994;51.796;13.006;2023-02-01T03:44:54;18.08;;;3.13;;
28862;SDS011;15994;51.796;13.006;2023-02-01T03:47:30;18.40;;;3.10;;
28862;SDS011;15994;51.796;13.006;2023-02-01T03:50:06;16.42;;;2.58;;
28862;SDS011;15994;51.796;13.006;2023-02-01T03:52:42;15.93;;;2.83;;
28862;SDS011;15994;51.796;13.006;2023-02-01T03:55:10;17.20;;;2.70;;
28862;SDS011;15994;51.796;13.006;2023-02-01T03:57:44;18.88;;;2.88;;
28862;SDS011;15994;51.796;13.006;2023-02-01T04:00:21;15.13;;;2.70;;
28862;SDS011;15994;51.796;13.006;2023-02-01T04:02:50;17.92;;;3.10;;
28862;SDS011;15994;51.796;13.006;2023-02-01T04:05:16;20.58;;;2.95;;
28862;SDS011;15994;51.796;13.006;2023-02-01T04:07:43;16.30;;;2.80;;
28862;SDS011;15994;51.796;13.006;2023-02-01T04:10:10;17.77;;;3.08;;
28862;SDS011;15994;51.796;13.006;2023-02-01T04:12:37;14.15;;;3.15;;
28862;SDS011;15994;51.796;13.006;2023-02-01T04:15:04;15.57;;;2.80;;
28862;SDS011;15994;51.796;13.006;2023-02-01T04:17:32;17.20;;;3.30;;
28862;SDS011;15994;51.796;13.006;2023-02-01T04:19:58;15.70;;;2.45;;
28862;SDS011;15994;51.796;13.006;2023-02-01T04:22:25;20.45;;;3.45;;
28862;SDS011;15994;51.796;13.006;2023-02-01T04:24:51;15.20;;;2.72;;
28862;SDS011;15994;51.796;13.006;2023-02-01T04:27:18;16.00;;;3.30;;
28862;SDS011;15994;51.796;13.006;2023-02-01T04:29:44;16.73;;;2.70;;
28862;SDS011;15994;51.796;13.006;2023-02-01T04:32:11;14.55;;;2.45;;
28862;SDS011;15994;51.796;13.006;2023-02-01T04:34:37;24.45;;;3.10;;
28862;SDS011;15994;51.796;13.006;2023-02-01T04:37:04;21.63;;;2.92;;
28862;SDS011;15994;51.796;13.006;2023-02-01T04:39:30;14.35;;;2.70;;
28862;SDS011;15994;51.796;13.006;2023-02-01T04:41:57;19.30;;;3.10;;
28862;SDS011;15994;51.796;13.006;2023-02-01T04:44:23;17.13;;;2.92;;
28862;SDS011;15994;51.796;13.006;2023-02-01T04:46:50;19.75;;;2.40;;
28862;SDS011;15994;51.796;13.006;2023-02-01T04:49:17;14.13;;;2.67;;
28862;SDS011;15994;51.796;13.006;2023-02-01T04:51:43;16.80;;;2.85;;
28862;SDS011;15994;51.796;13.006;2023-02-01T04:54:10;16.55;;;2.72;;
28862;SDS011;15994;51.796;13.006;2023-02-01T04:56:37;14.95;;;2.67;;
28862;SDS011;15994;51.796;13.006;2023-02-01T04:59:04;15.65;;;2.17;;
28862;SDS011;15994;51.796;13.006;2023-02-01T05:01:30;19.45;;;2.85;;
28862;SDS011;15994;51.796;13.006;2023-02-01T05:03:57;19.33;;;3.33;;
28862;SDS011;15994;51.796;13.006;2023-02-01T05:06:23;16.13;;;2.75;;
28862;SDS011;15994;51.796;13.006;2023-02-01T05:08:50;10.10;;;2.33;;
28862;SDS011;15994;51.796;13.006;2023-02-01T05:11:17;15.52;;;3.08;;
28862;SDS011;15994;51.796;13.006;2023-02-01T05:13:58;19.83;;;3.35;;
28862;SDS011;15994;51.796;13.006;2023-02-01T05:16:25;16.88;;;2.85;;
28862;SDS011;15994;51.796;13.006;2023-02-01T05:18:52;15.98;;;2.75;;
28862;SDS011;15994;51.796;13.006;2023-02-01T05:21:19;23.23;;;3.53;;
28862;SDS011;15994;51.796;13.006;2023-02-01T05:23:46;16.52;;;2.78;;
28862;SDS011;15994;51.796;13.006;2023-02-01T05:26:30;16.42;;;2.90;;
28862;SDS011;15994;51.796;13.006;2023-02-01T05:28:57;16.85;;;3.22;;
28862;SDS011;15994;51.796;13.006;2023-02-01T05:31:23;15.85;;;3.15;;
28862;SDS011;15994;51.796;13.006;2023-02-01T05:33:50;16.08;;;2.85;;
28862;SDS011;15994;51.796;13.006;2023-02-01T05:36:17;17.02;;;2.65;;
28862;SDS011;15994;51.796;13.006;2023-02-01T05:38:43;19.02;;;2.78;;
28862;SDS011;15994;51.796;13.006;2023-02-01T05:41:10;15.65;;;3.03;;
28862;SDS011;15994;51.796;13.006;2023-02-01T05:43:36;15.73;;;2.80;;
28862;SDS011;15994;51.796;13.006;2023-02-01T05:46:03;20.42;;;3.25;;
28862;SDS011;15994;51.796;13.006;2023-02-01T05:48:30;15.88;;;3.25;;
28862;SDS011;15994;51.796;13.006;2023-02-01T05:50:56;15.38;;;3.08;;
28862;SDS011;15994;51.796;13.006;2023-02-01T05:53:23;19.42;;;3.22;;
28862;SDS011;15994;51.796;13.006;2023-02-01T05:55:49;15.07;;;3.22;;
28862;SDS011;15994;51.796;13.006;2023-02-01T05:58:16;19.10;;;3.60;;
28862;SDS011;15994;51.796;13.006;2023-02-01T06:00:42;13.38;;;2.60;;
28862;SDS011;15994;51.796;13.006;2023-02-01T06:03:09;15.32;;;3.28;;
28862;SDS011;15994;51.796;13.006;2023-02-01T06:05:35;19.55;;;3.00;;
28862;SDS011;15994;51.796;13.006;2023-02-01T06:08:02;14.65;;;2.90;;
28862;SDS011;15994;51.796;13.006;2023-02-01T06:10:29;17.35;;;2.85;;
28862;SDS011;15994;51.796;13.006;2023-02-01T06:12:56;11.75;;;2.72;;
28862;SDS011;15994;51.796;13.006;2023-02-01T06:15:22;15.07;;;3.00;;
28862;SDS011;15994;51.796;13.006;2023-02-01T06:17:49;21.30;;;3.30;;
28862;SDS011;15994;51.796;13.006;2023-02-01T06:20:15;14.25;;;2.42;;
28862;SDS011;15994;51.796;13.006;2023-02-01T06:22:42;19.23;;;2.90;;
28862;SDS011;15994;51.796;13.006;2023-02-01T06:25:09;17.70;;;3.00;;
28862;SDS011;15994;51.796;13.006;2023-02-01T06:27:36;18.92;;;3.50;;
28862;SDS011;15994;51.796;13.006;2023-02-01T06:30:04;17.48;;;2.55;;
28862;SDS011;15994;51.796;13.006;2023-02-01T06:32:32;15.15;;;2.63;;
28862;SDS011;15994;51.796;13.006;2023-02-01T06:34:59;17.38;;;2.95;;
28862;SDS011;15994;51.796;13.006;2023-02-01T06:37:25;19.90;;;3.30;;
28862;SDS011;15994;51.796;13.006;2023-02-01T06:39:54;22.50;;;2.85;;
28862;SDS011;15994;51.796;13.006;2023-02-01T06:42:20;16.27;;;3.53;;
28862;SDS011;15994;51.796;13.006;2023-02-01T06:44:47;20.38;;;3.17;;
28862;SDS011;15994;51.796;13.006;2023-02-01T06:47:14;16.30;;;2.78;;
28862;SDS011;15994;51.796;13.006;2023-02-01T06:49:40;17.00;;;3.00;;
28862;SDS011;15994;51.796;13.006;2023-02-01T06:52:07;15.68;;;3.17;;
28862;SDS011;15994;51.796;13.006;2023-02-01T06:54:34;18.27;;;3.20;;
28862;SDS011;15994;51.796;13.006;2023-02-01T06:57:02;18.33;;;3.25;;
28862;SDS011;15994;51.796;13.006;2023-02-01T06:59:29;14.75;;;2.70;;
28862;SDS011;15994;51.796;13.006;2023-02-01T07:01:55;14.85;;;3.67;;
28862;SDS011;15994;51.796;13.006;2023-02-01T07:04:22;18.98;;;3.70;;
28862;SDS011;15994;51.796;13.006;2023-02-01T07:06:48;17.60;;;3.15;;
28862;SDS011;15994;51.796;13.006;2023-02-01T07:09:15;24.55;;;3.63;;
28862;SDS011;15994;51.796;13.006;2023-02-01T07:11:41;21.77;;;3.45;;
28862;SDS011;15994;51.796;13.006;2023-02-01T07:14:09;21.73;;;4.47;;
28862;SDS011;15994;51.796;13.006;2023-02-01T07:16:36;19.75;;;3.35;;
28862;SDS011;15994;51.796;13.006;2023-02-01T07:19:03;18.65;;;3.33;;
28862;SDS011;15994;51.796;13.006;2023-02-01T07:21:30;20.73;;;3.78;;
28862;SDS011;15994;51.796;13.006;2023-02-01T07:23:57;18.42;;;3.88;;
28862;SDS011;15994;51.796;13.006;2023-02-01T07:26:24;19.98;;;3.97;;
28862;SDS011;15994;51.796;13.006;2023-02-01T07:28:51;18.77;;;3.58;;
28862;SDS011;15994;51.796;13.006;2023-02-01T07:31:18;18.88;;;3.88;;
28862;SDS011;15994;51.796;13.006;2023-02-01T07:33:46;19.48;;;3.80;;
28862;SDS011;15994;51.796;13.006;2023-02-01T07:36:16;21.50;;;3.92;;
28862;SDS011;15994;51.796;13.006;2023-02-01T07:38:43;22.67;;;3.70;;
28862;SDS011;15994;51.796;13.006;2023-02-01T07:41:11;15.13;;;3.10;;
28862;SDS011;15994;51.796;13.006;2023-02-01T07:43:38;18.25;;;3.42;;
28862;SDS011;15994;51.796;13.006;2023-02-01T07:46:05;22.70;;;4.30;;
28862;SDS011;15994;51.796;13.006;2023-02-01T07:48:32;21.95;;;3.85;;
28862;SDS011;15994;51.796;13.006;2023-02-01T07:51:00;27.75;;;7.05;;
28862;SDS011;15994;51.796;13.006;2023-02-01T07:53:29;22.67;;;5.40;;
28862;SDS011;15994;51.796;13.006;2023-02-01T07:55:56;16.17;;;4.35;;
28862;SDS011;15994;51.796;13.006;2023-02-01T07:58:24;22.73;;;4.68;;
28862;SDS011;15994;51.796;13.006;2023-02-01T08:00:51;20.27;;;4.20;;
28862;SDS011;15994;51.796;13.006;2023-02-01T08:03:36;18.30;;;4.63;;
28862;SDS011;15994;51.796;13.006;2023-02-01T08:06:03;21.15;;;4.70;;
28862;SDS011;15994;51.796;13.006;2023-02-01T08:08:30;22.35;;;4.03;;
28862;SDS011;15994;51.796;13.006;2023-02-01T08:10:57;19.02;;;4.30;;
28862;SDS011;15994;51.796;13.006;2023-02-01T08:13:28;19.65;;;3.92;;
28862;SDS011;15994;51.796;13.006;2023-02-01T08:16:01;19.02;;;4.22;;
28862;SDS011;15994;51.796;13.006;2023-02-01T08:18:29;14.48;;;3.60;;
28862;SDS011;15994;51.796;13.006;2023-02-01T08:20:56;19.17;;;3.58;;
28862;SDS011;15994;51.796;13.006;2023-02-01T08:23:22;19.80;;;3.70;;
28862;SDS011;15994;51.796;13.006;2023-02-01T08:25:49;16.10;;;3.17;;
28862;SDS011;15994;51.796;13.006;2023-02-01T08:28:15;21.50;;;3.72;;
28862;SDS011;15994;51.796;13.006;2023-02-01T08:30:42;18.60;;;3.33;;
28862;SDS011;15994;51.796;13.006;2023-02-01T08:33:08;21.67;;;3.60;;
28862;SDS011;15994;51.796;13.006;2023-02-01T08:35:36;15.82;;;4.05;;
28862;SDS011;15994;51.796;13.006;2023-02-01T08:38:02;18.58;;;3.92;;
28862;SDS011;15994;51.796;13.006;2023-02-01T08:40:29;14.70;;;3.47;;
28862;SDS011;15994;51.796;13.006;2023-02-01T08:42:56;14.18;;;3.25;;
28862;SDS011;15994;51.796;13.006;2023-02-01T08:45:26;22.70;;;3.65;;
28862;SDS011;15994;51.796;13.006;2023-02-01T08:47:54;11.27;;;3.25;;
28862;SDS011;15994;51.796;13.006;2023-02-01T08:50:22;20.90;;;3.28;;
28862;SDS011;15994;51.796;13.006;2023-02-01T08:52:50;18.90;;;3.83;;
28862;SDS011;15994;51.796;13.006;2023-02-01T08:55:16;17.35;;;3.50;;
28862;SDS011;15994;51.796;13.006;2023-02-01T08:57:44;15.30;;;3.40;;
28862;SDS011;15994;51.796;13.006;2023-02-01T09:00:11;14.18;;;3.28;;
28862;SDS011;15994;51.796;13.006;2023-02-01T09:02:41;13.27;;;3.00;;
28862;SDS011;15994;51.796;13.006;2023-02-01T09:05:08;18.48;;;4.40;;
28862;SDS011;15994;51.796;13.006;2023-02-01T09:07:35;18.40;;;3.45;;
28862;SDS011;15994;51.796;13.006;2023-02-01T09:10:02;15.50;;;3.03;;
28862;SDS011;15994;51.796;13.006;2023-02-01T09:12:30;14.18;;;3.30;;
28862;SDS011;15994;51.796;13.006;2023-02-01T09:14:59;19.83;;;3.38;;
28862;SDS011;15994;51.796;13.006;2023-02-01T09:17:26;10.63;;;3.00;;
28862;SDS011;15994;51.796;13.006;2023-02-01T09:19:53;13.52;;;3.33;;
28862;SDS011;15994;51.796;13.006;2023-02-01T09:22:20;15.50;;;3.72;;
28862;SDS011;15994;51.796;13.006;2023-02-01T09:24:46;14.57;;;3.30;;
28862;SDS011;15994;51.796;13.006;2023-02-01T09:27:13;12.70;;;3.00;;
28862;SDS011;15994;51.796;13.006;2023-02-01T09:29:39;11.63;;;3.22;;
28862;SDS011;15994;51.796;13.006;2023-02-01T09:32:06;16.48;;;3.33;;
28862;SDS011;15994;51.796;13.006;2023-02-01T09:34:32;11.10;;;2.80;;
28862;SDS011;15994;51.796;13.006;2023-02-01T09:36:59;9.48;;;2.75;;
28862;SDS011;15994;51.796;13.006;2023-02-01T09:39:26;10.00;;;3.00;;
28862;SDS011;15994;51.796;13.006;2023-02-01T09:41:57;10.85;;;4.05;;
28862;SDS011;15994;51.796;13.006;2023-02-01T09:45:24;9.98;;;3.10;;
28862;SDS011;15994;51.796;13.006;2023-02-01T09:48:11;9.63;;;2.85;;
28862;SDS011;15994;51.796;13.006;2023-02-01T09:50:44;11.40;;;2.67;;
28862;SDS011;15994;51.796;13.006;2023-02-01T09:55:49;9.23;;;3.07;;
28862;SDS011;15994;51.796;13.006;2023-02-01T10:01:15;8.05;;;2.42;;
28862;SDS011;15994;51.796;13.006;2023-02-01T10:03:47;6.03;;;2.15;;
28862;SDS011;15994;51.796;13.006;2023-02-01T10:14:18;4.78;;;2.10;;
28862;SDS011;15994;51.796;13.006;2023-02-01T10:17:14;8.80;;;2.00;;
28862;SDS011;15994;51.796;13.006;2023-02-01T10:19:53;6.72;;;1.83;;
28862;SDS011;15994;51.796;13.006;2023-02-01T10:22:42;4.97;;;1.80;;
28862;SDS011;15994;51.796;13.006;2023-02-01T10:27:37;8.10;;;2.33;;
28862;SDS011;15994;51.796;13.006;2023-02-01T10:30:25;7.65;;;2.05;;
28862;SDS011;15994;51.796;13.006;2023-02-01T10:33:07;7.75;;;2.13;;
28862;SDS011;15994;51.796;13.006;2023-02-01T10:35:44;10.73;;;2.40;;
28862;SDS011;15994;51.796;13.006;2023-02-01T10:38:45;10.02;;;2.13;;
28862;SDS011;15994;51.796;13.006;2023-02-01T10:41:11;8.98;;;2.15;;
28862;SDS011;15994;51.796;13.006;2023-02-01T10:43:40;11.75;;;2.80;;
28862;SDS011;15994;51.796;13.006;2023-02-01T10:46:08;11.07;;;2.25;;
28862;SDS011;15994;51.796;13.006;2023-02-01T10:48:35;11.18;;;2.30;;
28862;SDS011;15994;51.796;13.006;2023-02-01T10:51:16;7.88;;;2.05;;
28862;SDS011;15994;51.796;13.006;2023-02-01T10:53:55;9.15;;;2.50;;
28862;SDS011;15994;51.796;13.006;2023-02-01T10:56:26;8.93;;;2.28;;
28862;SDS011;15994;51.796;13.006;2023-02-01T10:59:01;12.50;;;2.47;;
28862;SDS011;15994;51.796;13.006;2023-02-01T11:01:37;6.68;;;2.00;;
28862;SDS011;15994;51.796;13.006;2023-02-01T11:04:16;7.45;;;2.00;;
28862;SDS011;15994;51.796;13.006;2023-02-01T11:06:52;9.27;;;1.88;;
28862;SDS011;15994;51.796;13.006;2023-02-01T11:09:30;9.13;;;2.00;;
28862;SDS011;15994;51.796;13.006;2023-02-01T11:11:58;10.68;;;2.50;;
28862;SDS011;15994;51.796;13.006;2023-02-01T11:14:27;7.30;;;2.15;;
28862;SDS011;15994;51.796;13.006;2023-02-01T11:17:01;9.18;;;2.00;;
28862;SDS011;15994;51.796;13.006;2023-02-01T11:20:02;9.88;;;2.10;;
28862;SDS011;15994;51.796;13.006;2023-02-01T11:22:38;9.50;;;2.10;;
28862;SDS011;15994;51.796;13.006;2023-02-01T11:25:18;8.02;;;1.90;;
28862;SDS011;15994;51.796;13.006;2023-02-01T11:27:46;7.00;;;2.08;;
28862;SDS011;15994;51.796;13.006;2023-02-01T11:30:17;10.88;;;2.30;;
28862;SDS011;15994;51.796;13.006;2023-02-01T11:32:52;8.95;;;1.80;;
28862;SDS011;15994;51.796;13.006;2023-02-01T11:35:19;7.80;;;1.73;;
28862;SDS011;15994;51.796;13.006;2023-02-01T11:37:52;9.07;;;2.20;;
28862;SDS011;15994;51.796;13.006;2023-02-01T11:40:28;7.50;;;1.92;;
28862;SDS011;15994;51.796;13.006;2023-02-01T11:45:35;12.77;;;3.17;;
28862;SDS011;15994;51.796;13.006;2023-02-01T11:48:02;13.43;;;2.90;;
28862;SDS011;15994;51.796;13.006;2023-02-01T11:56:33;15.25;;;3.25;;
28862;SDS011;15994;51.796;13.006;2023-02-01T11:59:13;11.60;;;2.63;;
28862;SDS011;15994;51.796;13.006;2023-02-01T12:01:55;14.63;;;3.17;;
28862;SDS011;15994;51.796;13.006;2023-02-01T12:07:58;17.20;;;3.22;;
28862;SDS011;15994;51.796;13.006;2023-02-01T12:25:31;14.32;;;3.65;;
28862;SDS011;15994;51.796;13.006;2023-02-01T12:37:00;14.52;;;2.78;;
28862;SDS011;15994;51.796;13.006;2023-02-01T12:42:29;13.27;;;3.00;;
28862;SDS011;15994;51.796;13.006;2023-02-01T12:45:15;16.95;;;3.45;;
28862;SDS011;15994;51.796;13.006;2023-02-01T12:50:55;16.13;;;3.45;;
28862;SDS011;15994;51.796;13.006;2023-02-01T12:53:25;17.00;;;3.95;;
28862;SDS011;15994;51.796;13.006;2023-02-01T12:55:54;20.33;;;4.85;;
28862;SDS011;15994;51.796;13.006;2023-02-01T12:58:31;16.58;;;4.10;;
28862;SDS011;15994;51.796;13.006;2023-02-01T13:01:05;21.38;;;5.40;;
28862;SDS011;15994;51.796;13.006;2023-02-01T13:03:55;22.25;;;4.78;;
28862;SDS011;15994;51.796;13.006;2023-02-01T13:06:45;16.70;;;4.43;;
28862;SDS011;15994;51.796;13.006;2023-02-01T13:12:00;21.10;;;4.60;;
28862;SDS011;15994;51.796;13.006;2023-02-01T13:17:22;24.17;;;4.30;;
28862;SDS011;15994;51.796;13.006;2023-02-01T13:19:53;26.20;;;5.05;;
28862;SDS011;15994;51.796;13.006;2023-02-01T13:22:32;21.25;;;4.68;;
28862;SDS011;15994;51.796;13.006;2023-02-01T13:27:53;17.25;;;3.78;;
28862;SDS011;15994;51.796;13.006;2023-02-01T13:30:23;17.08;;;3.05;;
28862;SDS011;15994;51.796;13.006;2023-02-01T13:35:56;18.75;;;2.88;;
28862;SDS011;15994;51.796;13.006;2023-02-01T13:38:47;15.65;;;2.70;;
28862;SDS011;15994;51.796;13.006;2023-02-01T13:41:41;14.93;;;2.42;;
28862;SDS011;15994;51.796;13.006;2023-02-01T13:44:26;9.88;;;2.00;;
28862;SDS011;15994;51.796;13.006;2023-02-01T13:46:55;14.75;;;2.45;;
28862;SDS011;15994;51.796;13.006;2023-02-01T13:49:28;12.70;;;2.10;;
28862;SDS011;15994;51.796;13.006;2023-02-01T13:51:57;12.93;;;2.30;;
28862;SDS011;15994;51.796;13.006;2023-02-01T13:54:31;16.95;;;2.25;;
28862;SDS011;15994;51.796;13.006;2023-02-01T14:05:06;10.48;;;2.17;;
28862;SDS011;15994;51.796;13.006;2023-02-01T14:08:02;11.40;;;2.30;;
28862;SDS011;15994;51.796;13.006;2023-02-01T14:16:11;13.98;;;2.20;;
28862;SDS011;15994;51.796;13.006;2023-02-01T14:21:12;10.15;;;2.00;;
28862;SDS011;15994;51.796;13.006;2023-02-01T14:26:43;9.55;;;2.33;;
28862;SDS011;15994;51.796;13.006;2023-02-01T14:29:30;9.95;;;2.17;;
28862;SDS011;15994;51.796;13.006;2023-02-01T14:34:51;12.35;;;2.13;;
28862;SDS011;15994;51.796;13.006;2023-02-01T14:42:28;9.27;;;1.95;;
28862;SDS011;15994;51.796;13.006;2023-02-01T14:45:45;13.73;;;2.30;;
28862;SDS011;15994;51.796;13.006;2023-02-01T14:55:44;11.05;;;2.00;;
28862;SDS011;15994;51.796;13.006;2023-02-01T15:01:14;15.38;;;2.55;;
28862;SDS011;15994;51.796;13.006;2023-02-01T15:03:52;12.98;;;2.92;;
28862;SDS011;15994;51.796;13.006;2023-02-01T15:08:55;13.88;;;2.85;;
28862;SDS011;15994;51.796;13.006;2023-02-01T15:11:26;12.38;;;2.60;;
28862;SDS011;15994;51.796;13.006;2023-02-01T15:13:53;12.77;;;2.83;;
28862;SDS011;15994;51.796;13.006;2023-02-01T15:16:22;14.88;;;3.17;;
28862;SDS011;15994;51.796;13.006;2023-02-01T15:18:50;12.45;;;2.70;;
28862;SDS011;15994;51.796;13.006;2023-02-01T15:21:32;11.20;;;3.10;;
28862;SDS011;15994;51.796;13.006;2023-02-01T15:24:13;26.13;;;11.00;;
28862;SDS011;15994;51.796;13.006;2023-02-01T15:26:44;36.03;;;14.95;;
28862;SDS011;15994;51.796;13.006;2023-02-01T15:29:11;22.27;;;8.40;;
28862;SDS011;15994;51.796;13.006;2023-02-01T15:31:40;12.85;;;3.53;;
28862;SDS011;15994;51.796;13.006;2023-02-01T15:34:12;25.00;;;8.77;;
28862;SDS011;15994;51.796;13.006;2023-02-01T15:36:39;17.55;;;7.10;;
28862;SDS011;15994;51.796;13.006;2023-02-01T15:39:14;9.90;;;3.33;;
28862;SDS011;15994;51.796;13.006;2023-02-01T15:41:58;14.18;;;5.57;;
28862;SDS011;15994;51.796;13.006;2023-02-01T15:44:34;9.40;;;3.25;;
28862;SDS011;15994;51.796;13.006;2023-02-01T15:47:07;8.27;;;2.80;;
28862;SDS011;15994;51.796;13.006;2023-02-01T15:49:40;11.10;;;3.40;;
28862;SDS011;15994;51.796;13.006;2023-02-01T15:52:20;6.63;;;2.63;;
28862;SDS011;15994;51.796;13.006;2023-02-01T15:54:53;7.80;;;3.00;;
28862;SDS011;15994;51.796;13.006;2023-02-01T15:57:27;9.43;;;2.90;;
28862;SDS011;15994;51.796;13.006;2023-02-01T16:00:00;8.82;;;3.05;;
28862;SDS011;15994;51.796;13.006;2023-02-01T16:02:52;8.57;;;2.75;;
28862;SDS011;15994;51.796;13.006;2023-02-01T16:05:35;9.45;;;3.30;;
28862;SDS011;15994;51.796;13.006;2023-02-01T16:08:16;8.57;;;3.20;;
28862;SDS011;15994;51.796;13.006;2023-02-01T16:10:48;6.88;;;2.88;;
28862;SDS011;15994;51.796;13.006;2023-02-01T16:13:16;5.95;;;3.00;;
28862;SDS011;15994;51.796;13.006;2023-02-01T16:15:45;10.02;;;2.78;;
28862;SDS011;15994;51.796;13.006;2023-02-01T16:18:12;6.35;;;2.60;;
28862;SDS011;15994;51.796;13.006;2023-02-01T16:20:40;6.55;;;2.65;;
28862;SDS011;15994;51.796;13.006;2023-02-01T16:23:08;6.80;;;2.55;;
28862;SDS011;15994;51.796;13.006;2023-02-01T16:25:36;6.57;;;2.72;;
28862;SDS011;15994;51.796;13.006;2023-02-01T16:28:03;7.00;;;2.20;;
28862;SDS011;15994;51.796;13.006;2023-02-01T16:30:30;5.22;;;2.30;;
28862;SDS011;15994;51.796;13.006;2023-02-01T16:33:00;5.75;;;2.22;;
28862;SDS011;15994;51.796;13.006;2023-02-01T16:35:33;7.22;;;2.40;;
28862;SDS011;15994;51.796;13.006;2023-02-01T16:38:02;9.73;;;2.70;;
28862;SDS011;15994;51.796;13.006;2023-02-01T16:40:33;5.55;;;2.13;;
28862;SDS011;15994;51.796;13.006;2023-02-01T16:43:00;5.47;;;2.00;;
28862;SDS011;15994;51.796;13.006;2023-02-01T16:45:28;3.15;;;1.60;;
28862;SDS011;15994;51.796;13.006;2023-02-01T16:47:54;4.90;;;1.60;;
28862;SDS011;15994;51.796;13.006;2023-02-01T16:50:24;4.35;;;1.92;;
28862;SDS011;15994;51.796;13.006;2023-02-01T16:52:52;3.25;;;1.48;;
28862;SDS011;15994;51.796;13.006;2023-02-01T16:55:19;4.47;;;1.40;;
28862;SDS011;15994;51.796;13.006;2023-02-01T16:57:47;4.38;;;1.02;;
28862;SDS011;15994;51.796;13.006;2023-02-01T17:00:14;2.28;;;1.20;;
28862;SDS011;15994;51.796;13.006;2023-02-01T17:02:41;4.28;;;1.42;;
28862;SDS011;15994;51.796;13.006;2023-02-01T17:05:08;4.63;;;1.48;;
28862;SDS011;15994;51.796;13.006;2023-02-01T17:07:35;4.72;;;1.00;;
28862;SDS011;15994;51.796;13.006;2023-02-01T17:10:04;4.25;;;1.40;;